Time;durP1;ratioP1;P1;durP2;ratioP2;P2;SDS_P1;SDS_P2;PMS_P1;PMS_P2;Temp;Humidity;BMP_temperature;BMP_pressure;BME280_temperature;BME280_humidity;BME280_pressure;Samples;Min_cycle;Max_cycle;Signal;HPM_P1;HPM_P2
2023/06/08 00:02:23;;;;;;;4.45;2.53;;;31.40;67.90;;;;;;4957439;28;20683;-91
2023/06/08 00:04:57;;;;;;;6.63;2.13;;;31.20;67.90;;;;;;4973242;28;20210;-90
2023/06/08 00:07:28;;;;;;;5.53;2.80;;;31.50;66.60;;;;;;4965471;28;20238;-92
2023/06/08 00:10:00;;;;;;;4.05;2.40;;;31.50;68.40;;;;;;4973268;28;20754;-92
2023/06/08 00:12:33;;;;;;;3.60;2.50;;;31.70;67.00;;;;;;4976715;28;20214;-91
2023/06/08 00:15:05;;;;;;;4.55;2.20;;;31.80;66.10;;;;;;4973893;28;20206;-91
2023/06/08 00:17:40;;;;;;;3.78;2.42;;;32.00;64.30;;;;;;4966913;28;20214;-92
2023/06/08 00:20:13;;;;;;;3.08;2.15;;;32.10;64.60;;;;;;4972396;28;20675;-91
2023/06/08 00:22:47;;;;;;;3.15;2.55;;;32.30;65.40;;;;;;4974197;28;20218;-92
2023/06/08 00:25:19;;;;;;;3.00;2.33;;;32.30;63.70;;;;;;4975225;28;20206;-93
2023/06/08 00:27:53;;;;;;;5.80;2.45;;;32.20;66.10;;;;;;4977403;28;20240;-93
2023/06/08 00:30:26;;;;;;;3.50;2.83;;;32.10;62.90;;;;;;4975878;28;20237;-93
2023/06/08 00:32:59;;;;;;;3.55;2.15;;;32.10;65.40;;;;;;4957347;28;20211;-93
2023/06/08 00:35:30;;;;;;;2.85;2.13;;;32.10;64.20;;;;;;4972824;28;20215;-92
2023/06/08 00:38:01;;;;;;;5.25;2.40;;;32.10;64.70;;;;;;4974269;28;20978;-92
2023/06/08 00:40:32;;;;;;;2.95;2.25;;;32.10;65.00;;;;;;4974124;28;20214;-93
2023/06/08 00:43:03;;;;;;;4.25;2.58;;;32.20;64.60;;;;;;4975032;28;20217;-93
2023/06/08 00:45:35;;;;;;;2.65;2.17;;;32.20;62.70;;;;;;4974965;28;20291;-93
2023/06/08 00:48:09;;;;;;;5.97;2.50;;;32.40;64.40;;;;;;4957038;28;20238;-93
2023/06/08 00:50:41;;;;;;;5.68;2.75;;;32.70;65.50;;;;;;4970545;28;20736;-93
2023/06/08 00:53:12;;;;;;;4.82;2.85;;;32.70;63.00;;;;;;4973853;28;20550;-93
2023/06/08 00:55:46;;;;;;;4.90;2.35;;;33.20;61.20;;;;;;4967637;28;20246;-92
2023/06/08 00:58:18;;;;;;;3.28;2.40;;;33.80;59.90;;;;;;4973332;28;20199;-93
2023/06/08 01:00:50;;;;;;;5.60;2.50;;;34.20;58.60;;;;;;4953087;28;20257;-93
2023/06/08 01:03:25;;;;;;;4.28;2.30;;;34.50;58.00;;;;;;4959473;28;20333;-92
2023/06/08 01:05:57;;;;;;;4.00;2.60;;;34.60;57.90;;;;;;4974651;28;20249;-93
2023/06/08 01:08:42;;;;;;;3.67;2.70;;;34.90;55.70;;;;;;4972984;28;20211;-92
2023/06/08 01:11:21;;;;;;;6.70;2.85;;;35.00;55.70;;;;;;4976110;28;20223;-93
2023/06/08 01:14:17;;;;;;;5.65;2.58;;;35.30;55.60;;;;;;4973483;28;20294;-93
2023/06/08 01:16:54;;;;;;;4.05;2.60;;;35.00;53.90;;;;;;4975984;28;20211;-92
2023/06/08 01:19:57;;;;;;;3.35;2.40;;;34.70;54.50;;;;;;4956343;28;20215;-92
2023/06/08 01:22:35;;;;;;;5.72;2.53;;;35.00;54.40;;;;;;4979048;28;20213;-91
2023/06/08 01:25:10;;;;;;;4.47;2.70;;;34.80;53.70;;;;;;4989161;28;20276;-92
2023/06/08 01:27:44;;;;;;;2.67;2.10;;;34.90;53.80;;;;;;4996721;28;20232;-94
2023/06/08 01:30:15;;;;;;;5.18;2.75;;;35.10;54.50;;;;;;4984894;28;20287;-93
2023/06/08 01:32:48;;;;;;;7.38;2.85;;;35.20;53.50;;;;;;4981865;28;20214;-94
2023/06/08 01:35:20;;;;;;;2.88;2.60;;;35.00;53.50;;;;;;4980607;28;20227;-93
2023/06/08 01:37:59;;;;;;;4.93;2.85;;;35.00;54.90;;;;;;4979116;28;20290;-93
2023/06/08 01:40:39;;;;;;;2.80;2.60;;;34.90;53.70;;;;;;4980517;28;20211;-92
2023/06/08 01:43:13;;;;;;;4.40;2.80;;;34.60;54.80;;;;;;4978739;28;20242;-92
2023/06/08 01:45:50;;;;;;;4.93;2.50;;;35.10;54.90;;;;;;4966407;28;20194;-92
2023/06/08 01:48:24;;;;;;;3.05;2.45;;;34.90;54.50;;;;;;4990050;28;20309;-91
2023/06/08 01:50:58;;;;;;;7.45;2.83;;;34.90;55.30;;;;;;4962891;28;20261;-90
2023/06/08 01:53:30;;;;;;;4.60;2.47;;;34.70;56.00;;;;;;4976400;28;20211;-89
2023/06/08 01:56:03;;;;;;;3.90;2.88;;;34.60;56.30;;;;;;4978961;28;20246;-91
2023/06/08 01:58:34;;;;;;;5.85;3.10;;;34.60;55.70;;;;;;4978268;28;20258;-89
2023/06/08 02:01:06;;;;;;;33.13;3.72;;;33.70;62.90;;;;;;4980536;28;20207;-90
2023/06/08 02:03:37;;;;;;;3.17;2.50;;;33.10;62.30;;;;;;4982044;28;20222;-91
2023/06/08 02:06:08;;;;;;;7.32;2.58;;;32.50;59.20;;;;;;4987492;28;20274;-89
2023/06/08 02:08:41;;;;;;;2.70;2.30;;;31.70;62.10;;;;;;4988450;28;20298;-93
2023/06/08 02:11:15;;;;;;;4.75;2.63;;;31.30;61.90;;;;;;4964815;28;20234;-93
2023/06/08 02:13:47;;;;;;;3.63;2.30;;;30.90;65.80;;;;;;4981989;28;20202;-92
2023/06/08 02:16:19;;;;;;;2.67;2.05;;;30.90;62.80;;;;;;4979560;28;20199;-92
2023/06/08 02:18:51;;;;;;;6.25;2.78;;;31.00;62.70;;;;;;4978705;28;20254;-92
2023/06/08 02:21:23;;;;;;;6.53;2.40;;;31.00;62.30;;;;;;4979453;28;20249;-93
2023/06/08 02:23:54;;;;;;;3.25;2.22;;;30.70;64.60;;;;;;4969845;28;20227;-91
2023/06/08 02:26:28;;;;;;;4.13;2.40;;;30.40;68.40;;;;;;4966354;28;20214;-92
2023/06/08 02:29:00;;;;;;;3.63;2.45;;;30.00;66.90;;;;;;4976872;28;20301;-92
2023/06/08 02:31:33;;;;;;;3.25;2.40;;;29.50;66.90;;;;;;4978533;28;20214;-93
2023/06/08 02:34:05;;;;;;;6.82;2.65;;;29.30;69.70;;;;;;4961528;28;20206;-92
2023/06/08 02:36:39;;;;;;;4.88;2.60;;;29.10;69.70;;;;;;4979188;28;20206;-94
2023/06/08 02:39:11;;;;;;;4.82;2.50;;;28.40;68.90;;;;;;4977327;28;20253;-93
2023/06/08 02:41:44;;;;;;;8.00;2.63;;;28.10;66.70;;;;;;4963881;28;20231;-89
2023/06/08 02:44:16;;;;;;;4.97;2.20;;;27.90;67.20;;;;;;4945319;28;20311;-93
2023/06/08 02:46:47;;;;;;;2.50;2.30;;;27.70;68.50;;;;;;4977019;28;20715;-91
2023/06/08 02:49:19;;;;;;;4.05;2.55;;;27.60;67.60;;;;;;4976077;28;20266;-92
2023/06/08 02:51:50;;;;;;;6.87;2.73;;;27.40;67.40;;;;;;4977009;28;20242;-92
2023/06/08 02:54:22;;;;;;;7.53;2.50;;;27.20;67.30;;;;;;4971508;28;20271;-93
2023/06/08 02:56:56;;;;;;;3.30;2.50;;;27.00;68.10;;;;;;4968827;28;20275;-89
2023/06/08 02:59:29;;;;;;;6.47;2.40;;;26.90;67.60;;;;;;4970995;28;20202;-90
2023/06/08 03:02:01;;;;;;;6.57;2.60;;;26.90;68.20;;;;;;4972323;28;20691;-89
2023/06/08 03:04:32;;;;;;;6.20;2.30;;;26.70;67.40;;;;;;4975263;28;20221;-91
2023/06/08 03:07:03;;;;;;;4.23;2.60;;;26.50;67.40;;;;;;4980350;28;20217;-95
2023/06/08 03:09:36;;;;;;;10.23;3.40;;;26.50;66.60;;;;;;4973536;28;20249;-96
2023/06/08 03:12:12;;;;;;;5.40;3.17;;;26.50;76.50;;;;;;4980858;28;20266;-96
2023/06/08 03:14:44;;;;;;;5.37;3.37;;;26.30;71.70;;;;;;4983369;28;20788;-96
2023/06/08 03:17:16;;;;;;;6.93;2.90;;;26.10;80.50;;;;;;4968459;28;20235;-96
2023/06/08 03:19:49;;;;;;;5.40;2.83;;;25.90;73.60;;;;;;4989575;28;20211;-96
2023/06/08 03:22:24;;;;;;;3.80;2.47;;;25.70;72.10;;;;;;4993809;28;20257;-96
2023/06/08 03:24:58;;;;;;;7.67;3.07;;;25.50;76.20;;;;;;4986171;28;20250;-96
2023/06/08 03:27:32;;;;;;;4.30;2.60;;;25.30;76.90;;;;;;4978131;28;20309;-96
2023/06/08 03:30:04;;;;;;;3.63;2.67;;;25.30;71.20;;;;;;4979324;28;20294;-96
2023/06/08 03:32:38;;;;;;;7.53;3.00;;;25.20;77.60;;;;;;4982149;28;20222;-96
2023/06/08 03:35:10;;;;;;;5.60;2.70;;;24.80;82.60;;;;;;4979435;28;20659;-96
2023/06/08 03:37:43;;;;;;;6.20;2.67;;;24.70;77.50;;;;;;4973838;28;20214;-94
2023/06/08 03:40:15;;;;;;;4.77;2.70;;;24.60;77.90;;;;;;4983201;28;20270;-96
2023/06/08 03:42:50;;;;;;;7.13;2.83;;;24.50;74.60;;;;;;4993914;28;20206;-96
2023/06/08 03:45:25;;;;;;;3.50;2.57;;;24.50;74.80;;;;;;4992625;28;20230;-96
2023/06/08 03:47:59;;;;;;;5.03;2.50;;;24.40;74.60;;;;;;4984483;28;20225;-96
2023/06/08 03:50:33;;;;;;;3.30;2.23;;;24.30;79.30;;;;;;4988255;28;20235;-96
2023/06/08 03:53:05;;;;;;;3.53;2.30;;;24.10;79.00;;;;;;4986418;28;20215;-96
2023/06/08 03:55:36;;;;;;;4.70;2.70;;;24.00;74.60;;;;;;4980807;28;20667;-96
2023/06/08 03:58:12;;;;;;;4.13;2.60;;;23.80;82.00;;;;;;4975919;28;20651;-96
2023/06/08 04:03:49;;;;;;;4.60;2.50;;;23.60;78.40;;;;;;4983554;28;20212;-96
2023/06/08 04:06:33;;;;;;;4.37;2.50;;;23.60;77.90;;;;;;4982981;28;20211;-96
2023/06/08 04:09:05;;;;;;;7.90;2.50;;;23.50;79.90;;;;;;4978753;28;20299;-96
2023/06/08 04:11:38;;;;;;;3.07;2.37;;;23.50;75.80;;;;;;4963422;28;20234;-96
2023/06/08 04:14:19;;;;;;;6.37;2.90;;;23.50;75.30;;;;;;4988647;28;20203;-96
2023/06/08 04:16:58;;;;;;;5.03;2.70;;;23.40;77.00;;;;;;4964813;28;20230;-96
2023/06/08 04:19:33;;;;;;;4.97;2.33;;;23.30;80.20;;;;;;4984872;28;20207;-96
2023/06/08 04:22:07;;;;;;;5.60;2.40;;;23.10;82.60;;;;;;4980164;28;20203;-96
2023/06/08 04:24:39;;;;;;;4.60;2.23;;;23.00;83.60;;;;;;4974765;28;20210;-96
2023/06/08 04:27:16;;;;;;;8.33;3.07;;;22.90;85.80;;;;;;4982189;28;20230;-96
2023/06/08 04:29:57;;;;;;;4.40;2.47;;;22.70;88.40;;;;;;4965138;28;20234;-96
2023/06/08 04:32:28;;;;;;;3.60;2.30;;;22.60;85.80;;;;;;4981572;28;20580;-96
2023/06/08 04:35:03;;;;;;;3.40;2.50;;;22.50;85.80;;;;;;4979445;28;20599;-96
2023/06/08 04:37:38;;;;;;;5.40;2.67;;;22.30;82.50;;;;;;4978162;28;20202;-96
2023/06/08 04:40:13;;;;;;;3.20;2.40;;;22.30;86.60;;;;;;4952488;28;20257;-96
2023/06/08 04:42:45;;;;;;;3.33;2.33;;;22.20;86.60;;;;;;4959752;28;20214;-95
2023/06/08 04:45:23;;;;;;;4.43;2.40;;;22.10;84.40;;;;;;4982743;28;20218;-96
2023/06/08 04:47:57;;;;;;;5.87;2.37;;;22.00;85.00;;;;;;4974141;28;20214;-96
2023/06/08 04:50:29;;;;;;;4.40;2.20;;;22.00;84.30;;;;;;4979615;28;20206;-96
2023/06/08 04:53:03;;;;;;;8.10;2.53;;;21.90;83.40;;;;;;4975563;28;20207;-95
2023/06/08 04:55:36;;;;;;;2.67;2.23;;;21.80;83.70;;;;;;4977782;28;20246;-95
2023/06/08 04:58:08;;;;;;;3.07;2.40;;;21.70;83.70;;;;;;4978853;28;20603;-96
2023/06/08 05:00:41;;;;;;;3.33;2.13;;;21.70;85.50;;;;;;4982258;28;20207;-95
2023/06/08 05:03:15;;;;;;;6.50;2.80;;;21.60;84.50;;;;;;4981899;28;20230;-96
2023/06/08 05:05:46;;;;;;;5.30;2.53;;;21.50;85.10;;;;;;4983515;28;20215;-96
2023/06/08 05:08:18;;;;;;;4.30;2.40;;;21.40;85.30;;;;;;4977370;28;20203;-96
2023/06/08 05:10:50;;;;;;;4.47;2.73;;;21.40;86.20;;;;;;4986094;28;20582;-96
2023/06/08 05:13:23;;;;;;;5.17;2.67;;;21.40;90.40;;;;;;4983208;28;20207;-96
2023/06/08 05:15:58;;;;;;;6.83;2.70;;;21.40;89.10;;;;;;4985239;28;20285;-96
2023/06/08 05:18:32;;;;;;;5.47;2.63;;;21.30;86.50;;;;;;4990144;28;20210;-96
2023/06/08 05:21:06;;;;;;;4.23;2.20;;;21.30;88.00;;;;;;4993650;28;20286;-96
2023/06/08 05:23:38;;;;;;;4.67;2.53;;;21.30;88.20;;;;;;4982695;28;20293;-95
2023/06/08 05:26:10;;;;;;;4.00;2.70;;;21.30;88.30;;;;;;4993271;28;20238;-96
2023/06/08 05:28:42;;;;;;;6.13;2.97;;;21.30;87.70;;;;;;4985822;28;20216;-96
2023/06/08 05:31:18;;;;;;;3.97;2.50;;;21.20;88.00;;;;;;4991323;28;20231;-96
2023/06/08 05:33:50;;;;;;;4.43;2.67;;;21.20;89.70;;;;;;4985446;28;20226;-96
2023/06/08 05:36:23;;;;;;;4.80;2.60;;;21.20;88.20;;;;;;4985170;28;20234;-96
2023/06/08 05:38:55;;;;;;;6.37;2.90;;;21.10;88.30;;;;;;4971148;28;20278;-96
2023/06/08 05:41:28;;;;;;;9.70;2.80;;;21.10;89.50;;;;;;4985547;28;20203;-95
2023/06/08 05:44:04;;;;;;;5.20;2.77;;;21.00;90.20;;;;;;4989863;28;20222;-96
2023/06/08 05:46:51;;;;;;;4.67;2.90;;;21.00;90.40;;;;;;4994024;28;20210;-96
2023/06/08 05:49:23;;;;;;;4.27;2.83;;;20.90;90.20;;;;;;4982571;28;20210;-95
2023/06/08 05:51:55;;;;;;;7.30;3.23;;;20.80;90.40;;;;;;4980218;28;20583;-96
2023/06/08 05:54:30;;;;;;;4.83;2.90;;;20.70;91.30;;;;;;4980484;28;20215;-94
2023/06/08 05:57:02;;;;;;;6.47;2.60;;;20.70;92.20;;;;;;5000493;28;20270;-95
2023/06/08 05:59:36;;;;;;;7.30;3.10;;;20.60;92.60;;;;;;4982913;28;20293;-96
2023/06/08 06:02:11;;;;;;;5.63;2.87;;;20.50;91.70;;;;;;4985009;28;20223;-96
2023/06/08 06:04:56;;;;;;;7.07;2.63;;;20.40;91.40;;;;;;5002907;28;20198;-94
2023/06/08 06:07:38;;;;;;;3.33;2.70;;;20.30;91.60;;;;;;4986177;28;20203;-96
2023/06/08 06:10:15;;;;;;;5.40;2.90;;;20.30;91.80;;;;;;4993328;28;20187;-96
2023/06/08 06:12:49;;;;;;;7.00;3.03;;;20.20;92.00;;;;;;5003181;28;20241;-96
2023/06/08 06:15:24;;;;;;;6.80;3.00;;;20.10;92.20;;;;;;4981261;28;20203;-96
2023/06/08 06:18:00;;;;;;;4.93;2.70;;;20.00;92.70;;;;;;4986161;28;20207;-96
2023/06/08 06:20:35;;;;;;;5.50;3.13;;;19.90;92.90;;;;;;4991242;28;20222;-96
2023/06/08 06:23:08;;;;;;;6.27;3.00;;;19.80;92.90;;;;;;4984136;28;20302;-96
2023/06/08 06:25:41;;;;;;;7.00;3.00;;;19.70;92.90;;;;;;4981532;28;20213;-95
2023/06/08 06:28:14;;;;;;;6.33;2.97;;;19.70;93.10;;;;;;4974640;28;20203;-96
2023/06/08 06:30:46;;;;;;;8.57;2.90;;;19.60;93.50;;;;;;4982715;28;20246;-96
2023/06/08 06:33:22;;;;;;;6.37;2.80;;;19.50;92.20;;;;;;4980571;28;20250;-95
2023/06/08 06:35:55;;;;;;;5.00;2.70;;;19.50;91.70;;;;;;4972523;28;20203;-93
2023/06/08 06:38:27;;;;;;;7.10;2.93;;;19.50;91.70;;;;;;4965031;28;20216;-95
2023/06/08 06:40:58;;;;;;;7.00;2.80;;;19.50;91.90;;;;;;4979291;28;20211;-96
2023/06/08 06:43:30;;;;;;;6.13;2.50;;;19.50;91.90;;;;;;4981062;28;20206;-96
2023/06/08 06:46:03;;;;;;;7.10;2.80;;;19.50;92.20;;;;;;4980680;28;20214;-95
2023/06/08 06:48:41;;;;;;;9.67;3.40;;;19.50;92.10;;;;;;4978308;28;20218;-96
2023/06/08 06:51:13;;;;;;;5.67;2.90;;;19.40;93.80;;;;;;4982611;28;20290;-94
2023/06/08 06:53:46;;;;;;;11.33;2.97;;;19.30;94.00;;;;;;4981951;28;20302;-94
2023/06/08 06:56:20;;;;;;;5.53;3.07;;;19.30;94.90;;;;;;4980469;28;20207;-96
2023/06/08 06:58:53;;;;;;;6.60;2.87;;;19.20;95.50;;;;;;4981043;28;20273;-96
2023/06/08 07:01:30;;;;;;;6.07;2.87;;;19.10;95.20;;;;;;4979998;28;20210;-96
2023/06/08 07:04:06;;;;;;;4.67;2.70;;;19.20;94.70;;;;;;4973138;28;20247;-96
2023/06/08 07:06:47;;;;;;;7.07;3.13;;;19.10;95.70;;;;;;4982340;28;20217;-95
2023/06/08 07:09:21;;;;;;;9.30;3.13;;;19.20;96.90;;;;;;4958479;28;20234;-96
2023/06/08 07:11:56;;;;;;;9.10;3.53;;;19.20;97.20;;;;;;4982406;28;20207;-96
2023/06/08 07:14:45;;;;;;;6.93;3.00;;;19.20;97.90;;;;;;4984670;28;20346;-96
2023/06/08 07:17:17;;;;;;;9.30;3.27;;;19.30;99.90;;;;;;4994609;28;20297;-94
2023/06/08 07:19:58;;;;;;;10.50;3.63;;;19.30;99.90;;;;;;4970917;28;20271;-95
2023/06/08 07:22:33;;;;;;;8.10;3.80;;;19.20;99.90;;;;;;4984789;28;20660;-96
2023/06/08 07:25:27;;;;;;;9.67;3.33;;;19.30;99.90;;;;;;4986926;28;20217;-96
2023/06/08 07:28:19;;;;;;;11.03;3.83;;;19.20;99.90;;;;;;4994102;28;20203;-96
2023/06/08 07:30:51;;;;;;;10.97;4.17;;;19.10;99.90;;;;;;4994224;28;20711;-96
2023/06/08 07:33:24;;;;;;;11.77;3.50;;;19.10;99.90;;;;;;4981440;28;20245;-95
2023/06/08 07:35:59;;;;;;;12.93;4.17;;;19.00;99.90;;;;;;4988771;28;20231;-96
2023/06/08 07:38:32;;;;;;;14.63;4.37;;;19.00;99.90;;;;;;4981693;28;20309;-94
2023/06/08 07:41:03;;;;;;;12.97;4.40;;;18.90;99.90;;;;;;4981616;28;20319;-95
2023/06/08 07:43:35;;;;;;;14.07;4.33;;;18.80;99.90;;;;;;4977703;28;20253;-96
2023/06/08 07:46:07;;;;;;;15.03;4.33;;;18.70;99.90;;;;;;4982526;28;20200;-96
2023/06/08 07:48:38;;;;;;;9.87;3.57;;;18.60;99.90;;;;;;4981231;28;20214;-94
2023/06/08 07:51:13;;;;;;;17.37;4.70;;;18.60;99.90;;;;;;4986686;28;20218;-95
2023/06/08 07:53:47;;;;;;;19.90;4.73;;;18.50;99.90;;;;;;4984313;28;20234;-93
2023/06/08 07:56:21;;;;;;;15.20;4.23;;;18.50;99.90;;;;;;4994651;28;20211;-95
2023/06/08 07:58:53;;;;;;;14.50;4.60;;;18.40;99.90;;;;;;4986393;28;20672;-95
2023/06/08 08:01:24;;;;;;;15.87;4.77;;;18.40;99.90;;;;;;4967506;28;20213;-96
2023/06/08 08:03:55;;;;;;;14.53;4.30;;;18.40;99.90;;;;;;4987615;28;20711;-95
2023/06/08 08:06:30;;;;;;;10.70;3.80;;;18.30;99.90;;;;;;4989656;28;20561;-95
2023/06/08 08:09:02;;;;;;;15.17;4.13;;;18.20;99.90;;;;;;4983504;28;20218;-96
2023/06/08 08:11:33;;;;;;;14.47;3.90;;;18.20;99.90;;;;;;4960293;29;20218;-96
2023/06/08 08:14:09;;;;;;;15.20;4.00;;;18.10;99.90;;;;;;4970667;28;20313;-96
2023/06/08 08:16:41;;;;;;;17.00;4.17;;;18.10;99.90;;;;;;4982435;28;20668;-96
2023/06/08 08:19:13;;;;;;;15.37;4.70;;;18.00;99.90;;;;;;4996900;28;20240;-94
2023/06/08 08:21:46;;;;;;;15.80;4.17;;;18.00;99.90;;;;;;4997993;28;20270;-96
2023/06/08 08:24:19;;;;;;;15.10;4.47;;;17.90;99.90;;;;;;4991554;28;20280;-96
2023/06/08 08:26:55;;;;;;;13.30;4.73;;;17.90;99.90;;;;;;4981570;28;20198;-96
2023/06/08 08:29:28;;;;;;;14.07;3.90;;;17.90;99.90;;;;;;4962250;28;20226;-94
2023/06/08 08:31:59;;;;;;;13.93;4.43;;;17.80;99.90;;;;;;4978263;28;20211;-95
2023/06/08 08:34:31;;;;;;;18.27;4.97;;;17.80;99.90;;;;;;4989643;28;20233;-96
2023/06/08 08:37:03;;;;;;;16.63;4.23;;;17.60;99.90;;;;;;4995162;28;20229;-95
2023/06/08 08:39:35;;;;;;;15.47;4.03;;;17.50;99.90;;;;;;4981473;28;20294;-96
2023/06/08 08:42:10;;;;;;;19.07;4.73;;;17.60;99.90;;;;;;4961190;29;20653;-95
2023/06/08 08:44:44;;;;;;;14.57;4.20;;;17.50;99.90;;;;;;4995583;28;20206;-95
2023/06/08 08:47:17;;;;;;;17.07;3.97;;;17.40;99.90;;;;;;4970782;28;20662;-95
2023/06/08 08:49:55;;;;;;;20.23;4.67;;;17.30;99.90;;;;;;4975245;28;20215;-95
2023/06/08 08:52:30;;;;;;;15.47;4.57;;;17.20;99.90;;;;;;4977327;28;20215;-96
2023/06/08 08:55:08;;;;;;;19.30;4.67;;;17.00;99.90;;;;;;4979855;28;20667;-94
2023/06/08 08:57:51;;;;;;;18.77;4.60;;;16.90;99.90;;;;;;4980310;28;20210;-94
2023/06/08 09:00:23;;;;;;;14.10;3.83;;;16.90;99.90;;;;;;4982085;28;20237;-95
2023/06/08 09:02:54;;;;;;;14.07;3.77;;;16.80;99.90;;;;;;4980626;28;20210;-95
2023/06/08 09:05:25;;;;;;;18.63;4.60;;;16.80;99.90;;;;;;4965661;28;20563;-95
2023/06/08 09:07:59;;;;;;;23.73;4.77;;;16.70;99.90;;;;;;4979656;28;20222;-96
2023/06/08 09:10:31;;;;;;;21.57;4.13;;;16.60;99.90;;;;;;4978722;28;20742;-96
2023/06/08 09:13:03;;;;;;;16.70;4.53;;;16.50;99.90;;;;;;4961156;29;20350;-94
2023/06/08 09:15:36;;;;;;;19.17;4.37;;;16.50;99.90;;;;;;4961245;29;20578;-96
2023/06/08 09:18:19;;;;;;;16.27;4.57;;;16.40;99.90;;;;;;4962724;28;20234;-95
2023/06/08 09:20:53;;;;;;;14.90;4.13;;;16.40;99.90;;;;;;4972963;28;20283;-96
2023/06/08 09:23:27;;;;;;;16.53;4.03;;;16.30;99.90;;;;;;4980158;28;20211;-95
2023/06/08 09:25:58;;;;;;;19.43;4.73;;;16.20;99.90;;;;;;4975108;28;20207;-96
2023/06/08 09:28:29;;;;;;;18.63;4.00;;;16.30;99.90;;;;;;4980266;28;20266;-96
2023/06/08 09:31:03;;;;;;;15.70;4.40;;;16.20;99.90;;;;;;4979409;28;20215;-96
2023/06/08 09:33:35;;;;;;;18.57;4.67;;;16.20;99.90;;;;;;4975529;28;20241;-96
2023/06/08 09:36:15;;;;;;;18.20;4.07;;;16.20;99.90;;;;;;4965166;28;20243;-94
2023/06/08 09:38:58;;;;;;;17.80;4.43;;;16.10;99.90;;;;;;4977061;28;20239;-95
2023/06/08 09:41:32;;;;;;;16.00;4.00;;;16.00;99.90;;;;;;4963583;28;20265;-93
2023/06/08 09:44:03;;;;;;;18.87;4.07;;;16.00;99.90;;;;;;4979708;28;20290;-95
2023/06/08 09:46:36;;;;;;;12.87;3.73;;;15.90;99.90;;;;;;4979427;28;20562;-95
2023/06/08 09:49:11;;;;;;;20.47;4.00;;;15.90;99.90;;;;;;4979869;28;20210;-95
2023/06/08 09:51:49;;;;;;;18.40;4.80;;;15.80;99.90;;;;;;4979487;28;20210;-96
2023/06/08 09:54:24;;;;;;;14.63;4.23;;;15.80;99.90;;;;;;4979778;28;20234;-96
2023/06/08 09:56:58;;;;;;;17.53;4.47;;;15.80;99.90;;;;;;4980394;28;20293;-95
2023/06/08 09:59:41;;;;;;;19.87;5.03;;;15.70;99.90;;;;;;4977813;28;20241;-95
2023/06/08 10:02:21;;;;;;;16.50;4.40;;;15.70;99.90;;;;;;4979384;28;20266;-95
2023/06/08 10:05:00;;;;;;;15.03;4.20;;;15.60;99.90;;;;;;4961737;28;20537;-94
2023/06/08 10:07:35;;;;;;;13.77;4.40;;;15.50;99.90;;;;;;4979359;28;20636;-95
2023/06/08 10:10:13;;;;;;;16.43;3.67;;;15.40;99.90;;;;;;4978182;28;20214;-96
2023/06/08 10:12:45;;;;;;;16.17;3.93;;;15.30;99.90;;;;;;4973941;28;20719;-95
2023/06/08 10:15:18;;;;;;;17.80;4.13;;;15.20;99.90;;;;;;4979124;28;20249;-96
2023/06/08 10:17:51;;;;;;;13.03;3.87;;;15.20;99.90;;;;;;4978118;28;20740;-96
2023/06/08 10:20:23;;;;;;;19.93;4.50;;;15.20;99.90;;;;;;4982748;28;20309;-95
2023/06/08 10:23:03;;;;;;;15.63;4.33;;;15.10;99.90;;;;;;4980307;28;20207;-96
2023/06/08 10:25:38;;;;;;;12.73;3.83;;;15.10;99.90;;;;;;4980556;28;20210;-95
2023/06/08 10:28:11;;;;;;;19.83;4.23;;;15.10;99.90;;;;;;4985432;28;20215;-95
2023/06/08 10:30:45;;;;;;;19.73;5.10;;;15.00;99.90;;;;;;4998141;28;20214;-94
2023/06/08 10:33:19;;;;;;;14.53;3.93;;;15.00;99.90;;;;;;4999483;28;20206;-95
2023/06/08 10:36:08;;;;;;;18.43;4.50;;;14.90;99.90;;;;;;4997794;28;20226;-96
2023/06/08 10:39:00;;;;;;;16.13;4.37;;;14.90;99.90;;;;;;4993380;28;20239;-96
2023/06/08 10:41:43;;;;;;;18.00;4.33;;;14.80;99.90;;;;;;4984998;28;20234;-95
2023/06/08 10:44:29;;;;;;;21.43;5.03;;;14.70;99.90;;;;;;4979826;28;20660;-93
2023/06/08 10:47:03;;;;;;;15.97;4.60;;;14.60;99.90;;;;;;4980889;28;20656;-95
2023/06/08 10:49:36;;;;;;;18.20;5.23;;;14.60;99.90;;;;;;4977936;28;20211;-94
2023/06/08 10:52:10;;;;;;;17.13;4.33;;;14.50;99.90;;;;;;4978841;28;20223;-94
2023/06/08 10:54:56;;;;;;;22.87;4.67;;;14.30;99.90;;;;;;4967001;28;20244;-95
2023/06/08 10:57:42;;;;;;;17.77;4.20;;;14.20;99.90;;;;;;4970002;28;20203;-94
2023/06/08 11:00:47;;;;;;;16.07;4.07;;;14.30;99.90;;;;;;4978897;28;20238;-93
2023/06/08 11:03:21;;;;;;;18.90;5.37;;;14.20;99.90;;;;;;4974666;28;20229;-95
2023/06/08 11:05:53;;;;;;;20.60;4.43;;;14.10;99.90;;;;;;4990979;28;20578;-95
2023/06/08 11:08:26;;;;;;;15.33;4.63;;;14.10;99.90;;;;;;4986788;28;20221;-96
2023/06/08 11:10:57;;;;;;;16.57;4.90;;;14.10;99.90;;;;;;4977558;28;20218;-95
2023/06/08 11:13:33;;;;;;;17.80;4.60;;;14.00;99.90;;;;;;4982919;28;20244;-95
2023/06/08 11:16:05;;;;;;;22.57;5.40;;;13.90;99.90;;;;;;4997313;28;20324;-95
2023/06/08 11:18:36;;;;;;;18.50;4.60;;;13.80;99.90;;;;;;4987962;28;20583;-95
2023/06/08 11:21:07;;;;;;;19.13;4.30;;;13.90;99.90;;;;;;4978104;28;20245;-96
2023/06/08 11:23:38;;;;;;;17.10;4.70;;;13.80;99.90;;;;;;4976503;28;20326;-96
2023/06/08 11:26:12;;;;;;;19.50;4.77;;;13.70;99.90;;;;;;4977275;28;20294;-95
2023/06/08 11:28:48;;;;;;;15.43;4.50;;;13.70;99.90;;;;;;4975838;28;20210;-95
2023/06/08 11:31:22;;;;;;;13.93;4.13;;;13.70;99.90;;;;;;4983493;28;20295;-96
2023/06/08 11:33:58;;;;;;;20.33;4.70;;;13.70;99.90;;;;;;4977400;28;20210;-94
2023/06/08 11:36:30;;;;;;;21.50;4.17;;;13.70;99.90;;;;;;4962323;28;20195;-95
2023/06/08 11:39:04;;;;;;;17.63;4.73;;;13.60;99.90;;;;;;4966482;28;20265;-96
2023/06/08 11:41:36;;;;;;;16.57;4.37;;;13.60;99.90;;;;;;4986350;28;20273;-96
2023/06/08 11:44:14;;;;;;;17.13;4.90;;;13.50;99.90;;;;;;4962585;28;20388;-95
2023/06/08 11:46:46;;;;;;;15.03;4.33;;;13.40;99.90;;;;;;4978973;28;20202;-95
2023/06/08 11:49:18;;;;;;;17.17;4.47;;;13.40;99.90;;;;;;4978797;28;20214;-96
2023/06/08 11:51:53;;;;;;;18.33;4.80;;;13.30;99.90;;;;;;4991178;28;20660;-95
2023/06/08 11:54:25;;;;;;;18.90;4.53;;;13.30;99.90;;;;;;4979615;28;20392;-93
2023/06/08 11:57:06;;;;;;;20.87;4.77;;;13.30;99.90;;;;;;4979107;28;20215;-93
2023/06/08 11:59:45;;;;;;;17.70;4.87;;;13.30;99.90;;;;;;4982562;28;20298;-96
2023/06/08 12:02:22;;;;;;;22.63;5.63;;;13.30;99.90;;;;;;4979084;28;20203;-95
2023/06/08 12:04:53;;;;;;;20.67;4.77;;;13.30;99.90;;;;;;4979058;28;20237;-94
2023/06/08 12:07:25;;;;;;;15.47;4.47;;;13.30;99.90;;;;;;4978597;28;20686;-95
2023/06/08 12:09:56;;;;;;;19.87;4.93;;;13.30;99.90;;;;;;4968628;28;20657;-96
2023/06/08 12:12:30;;;;;;;21.43;5.13;;;13.40;99.90;;;;;;4969116;28;20215;-94
2023/06/08 12:15:03;;;;;;;17.93;4.80;;;13.30;99.90;;;;;;4977952;28;20229;-93
2023/06/08 12:17:35;;;;;;;22.03;5.43;;;13.30;99.90;;;;;;4978751;28;20221;-95
2023/06/08 12:20:09;;;;;;;16.37;3.83;;;13.30;99.90;;;;;;4977738;28;20207;-96
2023/06/08 12:22:41;;;;;;;16.60;4.97;;;13.30;99.90;;;;;;4958324;29;20243;-95
2023/06/08 12:25:14;;;;;;;16.07;4.93;;;13.30;99.90;;;;;;4972805;28;20222;-94
2023/06/08 12:27:47;;;;;;;18.00;4.53;;;13.20;99.90;;;;;;4966795;28;20211;-96
2023/06/08 12:30:20;;;;;;;19.37;4.60;;;13.20;99.90;;;;;;4996675;28;20259;-95
2023/06/08 12:32:52;;;;;;;21.03;4.97;;;13.20;99.90;;;;;;4998770;28;20192;-95
2023/06/08 12:35:25;;;;;;;18.97;4.80;;;13.20;99.90;;;;;;4995755;28;20234;-95
2023/06/08 12:37:57;;;;;;;13.67;4.63;;;13.20;99.90;;;;;;4986986;28;20219;-95
2023/06/08 12:40:28;;;;;;;15.57;4.43;;;13.10;99.90;;;;;;4963773;29;20215;-95
2023/06/08 12:43:03;;;;;;;15.57;4.43;;;13.10;99.90;;;;;;4996464;28;20190;-94
2023/06/08 12:45:37;;;;;;;17.67;4.37;;;13.10;99.90;;;;;;5017087;28;20209;-95
2023/06/08 12:48:09;;;;;;;15.10;4.67;;;13.10;99.90;;;;;;5002302;28;20211;-96
2023/06/08 12:50:41;;;;;;;14.77;4.37;;;13.10;99.90;;;;;;4981713;28;20211;-95
2023/06/08 12:53:13;;;;;;;20.53;4.40;;;13.00;99.90;;;;;;4977486;28;20240;-95
2023/06/08 12:55:58;;;;;;;16.93;4.70;;;13.10;99.90;;;;;;4982929;28;20271;-93
2023/06/08 12:58:42;;;;;;;14.83;4.20;;;13.20;99.90;;;;;;4983273;28;20199;-95
2023/06/08 13:01:16;;;;;;;18.83;4.27;;;13.20;99.90;;;;;;4976898;28;20293;-95
2023/06/08 13:03:48;;;;;;;17.17;4.27;;;13.20;99.90;;;;;;4972582;28;20206;-94
2023/06/08 13:06:20;;;;;;;14.27;4.07;;;13.30;99.90;;;;;;4977636;28;21665;-95
2023/06/08 13:08:52;;;;;;;18.70;4.60;;;13.30;99.90;;;;;;4982428;28;20268;-95
2023/06/08 13:11:23;;;;;;;19.63;4.90;;;13.30;99.90;;;;;;4971355;28;20247;-94
2023/06/08 13:13:56;;;;;;;17.27;4.17;;;13.30;99.90;;;;;;4976875;28;20207;-95
2023/06/08 13:16:30;;;;;;;14.30;3.90;;;13.30;99.90;;;;;;4976094;28;20259;-94
2023/06/08 13:19:02;;;;;;;20.57;4.33;;;13.30;99.90;;;;;;4977524;28;20252;-94
2023/06/08 13:21:35;;;;;;;18.57;4.47;;;13.40;99.90;;;;;;4980401;28;20207;-96
2023/06/08 13:24:08;;;;;;;18.60;4.17;;;13.40;99.90;;;;;;4981952;28;20286;-95